Time;durP1;ratioP1;P1;durP2;ratioP2;P2;SDS_P1;SDS_P2;PMS_P1;PMS_P2;Temp;Humidity;BMP_temperature;BMP_pressure;BME280_temperature;BME280_humidity;BME280_pressure;Samples;Min_cycle;Max_cycle;Signal;HPM_P1;HPM_P2
2021/08/29 00:01:45;;;;;;;;;1.50;1.50;;;;;26.75;39.32;102236.28;5036359;28;45545;-67
2021/08/29 00:04:11;;;;;;;;;3.00;2.00;;;;;26.77;39.37;102236.09;5036026;28;45926;-68
2021/08/29 00:06:36;;;;;;;;;1.50;1.50;;;;;26.78;39.35;102237.78;5033297;28;45351;-67
2021/08/29 00:09:05;;;;;;;;;1.25;1.25;;;;;26.78;39.33;102237.78;5034254;28;45353;-67
2021/08/29 00:11:30;;;;;;;;;2.50;2.50;;;;;26.78;39.49;102240.44;5031215;28;45465;-67
2021/08/29 00:13:55;;;;;;;;;2.75;2.75;;;;;26.79;39.09;102234.09;5035858;28;45456;-67
2021/08/29 00:16:21;;;;;;;;;3.25;2.00;;;;;26.79;38.78;102226.06;5035968;28;45410;-66
2021/08/29 00:18:46;;;;;;;;;2.00;2.00;;;;;26.78;39.02;102224.44;5036013;28;47831;-67
2021/08/29 00:21:11;;;;;;;;;3.00;1.75;;;;;26.79;39.57;102234.09;5036255;28;45420;-67
2021/08/29 00:23:38;;;;;;;;;2.00;2.00;;;;;26.77;39.39;102226.25;5038221;28;45367;-67
2021/08/29 00:26:03;;;;;;;;;2.50;1.50;;;;;26.77;39.37;102220.09;5035609;28;45299;-67
2021/08/29 00:28:29;;;;;;;;;2.00;2.00;;;;;26.77;39.28;102214.75;5036008;28;45477;-67
2021/08/29 00:30:54;;;;;;;;;5.00;2.00;;;;;26.76;39.21;102218.41;5035700;28;45473;-67
2021/08/29 00:33:20;;;;;;;;;1.00;1.00;;;;;26.75;39.38;102206.94;5035822;28;45538;-67
2021/08/29 00:35:45;;;;;;;;;2.00;2.00;;;;;26.74;39.34;102211.44;5037910;28;45351;-67
2021/08/29 00:38:10;;;;;;;;;2.00;2.00;;;;;26.74;39.31;102205.25;5035743;28;45347;-67
2021/08/29 00:40:36;;;;;;;;;2.50;2.50;;;;;26.74;39.30;102205.25;5035537;28;45458;-68
2021/08/29 00:43:02;;;;;;;;;2.25;2.25;;;;;26.73;39.39;102209.75;5035487;28;47412;-67
2021/08/29 00:45:27;;;;;;;;;1.25;1.25;;;;;26.74;39.31;102207.94;5034056;28;45368;-67
2021/08/29 00:47:53;;;;;;;;;2.00;2.00;;;;;26.72;39.29;102213.47;5028783;28;45303;-67
2021/08/29 00:50:18;;;;;;;;;3.00;3.00;;;;;26.73;39.14;102206.25;5029664;28;45689;-67
2021/08/29 00:52:44;;;;;;;;;2.00;2.00;;;;;26.69;39.36;102188.94;5035453;28;46282;-67
2021/08/29 00:55:10;;;;;;;;;1.00;1.00;;;;;26.72;39.26;102201.94;5034555;28;45538;-67
2021/08/29 00:57:37;;;;;;;;;3.50;2.00;;;;;26.72;39.23;102202.78;5035547;28;45478;-67
2021/08/29 01:00:04;;;;;;;;;2.00;2.00;;;;;26.68;39.16;102201.47;5036709;28;45455;-67
2021/08/29 01:02:32;;;;;;;;;2.00;2.00;;;;;26.71;39.56;102209.13;5036561;28;45425;-67
2021/08/29 01:05:28;;;;;;;;;2.25;2.00;;;;;26.71;39.07;102208.28;5034983;28;45492;-67
2021/08/29 01:08:03;;;;;;;;;4.00;2.00;;;;;26.71;39.33;102206.44;5033031;28;45587;-66
2021/08/29 01:10:28;;;;;;;;;2.25;2.25;;;;;26.71;39.34;102203.78;5034865;28;45385;-67
2021/08/29 01:12:57;;;;;;;;;3.25;3.00;;;;;26.71;39.00;102208.28;5035087;28;46088;-67
2021/08/29 01:15:26;;;;;;;;;3.25;3.00;;;;;26.72;39.24;102201.94;5018306;28;46020;-67
2021/08/29 01:17:53;;;;;;;;;2.50;2.00;;;;;26.70;39.51;102193.28;5033335;28;45345;-67
2021/08/29 01:20:43;;;;;;;;;2.25;2.25;;;;;26.72;39.28;102202.78;5035046;28;45301;-67
2021/08/29 01:23:09;;;;;;;;;2.00;2.00;;;;;26.72;38.89;102201.94;5034809;28;45911;-66
2021/08/29 01:25:39;;;;;;;;;3.00;2.00;;;;;26.73;39.13;102208.94;5029003;28;45789;-67
2021/08/29 01:28:11;;;;;;;;;1.25;1.25;;;;;26.74;39.27;102199.91;5029170;28;45714;-67
2021/08/29 01:30:37;;;;;;;;;2.75;2.75;;;;;26.73;39.32;102195.59;5035202;28;45377;-67
2021/08/29 01:33:06;;;;;;;;;1.75;1.75;;;;;26.73;39.20;102199.09;5035893;28;46919;-67
2021/08/29 01:35:37;;;;;;;;;2.00;2.00;;;;;26.75;39.39;102196.25;5036402;28;45381;-67
2021/08/29 01:38:06;;;;;;;;;2.75;2.75;;;;;26.75;39.39;102190.91;5034519;28;45345;-67
2021/08/29 01:40:32;;;;;;;;;2.00;2.00;;;;;26.74;39.50;102191.91;5034812;28;45492;-67
2021/08/29 01:42:59;;;;;;;;;2.25;2.00;;;;;26.74;39.21;102183.91;5034564;28;46317;-67
2021/08/29 01:45:25;;;;;;;;;1.00;1.00;;;;;26.75;39.50;102193.59;5034861;28;45600;-67
2021/08/29 01:47:54;;;;;;;;;3.25;2.75;;;;;26.74;38.98;102186.56;5043657;28;45291;-67
2021/08/29 01:50:20;;;;;;;;;2.25;2.25;;;;;26.70;39.11;102182.63;5028942;28;45457;-67
2021/08/29 01:52:46;;;;;;;;;3.25;2.25;;;;;26.74;39.15;102186.56;5034123;28;45503;-67
2021/08/29 01:55:11;;;;;;;;;2.00;2.00;;;;;26.74;39.30;102195.41;5034426;28;45549;-67
2021/08/29 01:57:36;;;;;;;;;0.50;0.50;;;;;26.75;39.01;102188.25;5034794;28;45381;-67
2021/08/29 02:00:02;;;;;;;;;2.50;2.50;;;;;26.72;39.03;102178.75;5035897;28;45426;-67
2021/08/29 02:02:29;;;;;;;;;1.00;1.00;;;;;26.73;38.85;102192.91;5035327;28;45332;-67
2021/08/29 02:04:54;;;;;;;;;2.00;2.00;;;;;26.70;39.04;102193.28;5027745;28;45390;-67
2021/08/29 02:07:33;;;;;;;;;1.25;1.25;;;;;26.73;39.26;102199.09;5027533;28;45316;-67
2021/08/29 02:10:03;;;;;;;;;1.00;1.00;;;;;26.72;39.54;102202.78;5034470;28;45332;-67
2021/08/29 02:12:34;;;;;;;;;2.00;1.25;;;;;26.73;39.10;102201.75;5034338;28;45353;-67
2021/08/29 02:15:07;;;;;;;;;2.50;1.50;;;;;26.71;39.41;102203.78;5035534;28;45425;-67
2021/08/29 02:17:34;;;;;;;;;2.75;2.75;;;;;26.71;39.00;102203.78;5036027;28;45481;-67
2021/08/29 02:20:04;;;;;;;;;1.00;1.00;;;;;26.70;39.39;102198.63;5034177;28;45457;-67
2021/08/29 02:22:33;;;;;;;;;4.25;3.25;;;;;26.71;39.31;102202.94;5033785;28;45833;-67
2021/08/29 02:24:58;;;;;;;;;4.00;2.00;;;;;26.71;38.95;102205.63;5033779;28;45376;-67
2021/08/29 02:27:24;;;;;;;;;2.25;2.25;;;;;26.70;39.43;102203.97;5034591;28;45271;-67
2021/08/29 02:29:50;;;;;;;;;2.25;1.50;;;;;26.69;39.61;102202.28;5036026;28;45362;-67
2021/08/29 02:32:16;;;;;;;;;2.00;2.00;;;;;26.68;39.23;102201.47;5033929;28;46092;-67
2021/08/29 02:34:42;;;;;;;;;1.00;1.00;;;;;26.67;39.19;102197.16;5033786;28;45370;-67
2021/08/29 02:37:10;;;;;;;;;1.25;1.25;;;;;26.68;38.99;102197.94;5033584;28;45481;-67
2021/08/29 02:39:38;;;;;;;;;3.00;2.00;;;;;26.68;39.57;102197.94;5034140;28;45327;-67
2021/08/29 02:42:05;;;;;;;;;1.25;1.25;;;;;26.65;39.03;102199.16;5034931;28;46021;-67
2021/08/29 02:44:32;;;;;;;;;1.50;1.50;;;;;26.67;39.21;102197.16;5028914;28;45405;-67
2021/08/29 02:46:58;;;;;;;;;2.00;2.00;;;;;26.67;38.91;102194.47;5027864;28;45505;-67
2021/08/29 02:49:24;;;;;;;;;3.25;2.25;;;;;26.68;39.12;102204.13;5033718;28;45420;-67
2021/08/29 02:51:50;;;;;;;;;1.50;1.50;;;;;26.67;39.23;102199.81;5033389;28;45450;-67
2021/08/29 02:54:16;;;;;;;;;3.00;2.00;;;;;26.67;39.20;102202.50;5033636;28;45326;-67
2021/08/29 02:56:43;;;;;;;;;2.75;2.75;;;;;26.66;39.12;102190.13;5035815;28;45348;-67
2021/08/29 02:59:09;;;;;;;;;2.50;2.50;;;;;26.66;39.49;102198.16;5033680;28;45495;-67
2021/08/29 03:01:34;;;;;;;;;4.00;2.50;;;;;26.67;39.20;102198.97;5020016;28;47986;-67
2021/08/29 03:04:00;;;;;;;;;3.50;2.00;;;;;26.66;39.00;102191.97;5033349;28;45425;-67
2021/08/29 03:06:26;;;;;;;;;2.00;2.00;;;;;26.69;39.25;102196.97;5033414;28;45521;-67
2021/08/29 03:08:52;;;;;;;;;2.50;2.50;;;;;26.70;39.12;102194.09;5035570;28;45363;-66
2021/08/29 03:11:21;;;;;;;;;1.00;1.00;;;;;26.71;39.14;102189.59;5033350;28;46887;-67
2021/08/29 03:13:48;;;;;;;;;1.25;1.25;;;;;26.71;39.32;102186.94;5033386;28;45287;-67
2021/08/29 03:16:13;;;;;;;;;1.00;1.00;;;;;26.72;39.18;102180.59;5033272;28;45583;-67
2021/08/29 03:18:39;;;;;;;;;1.25;1.25;;;;;26.69;39.09;102173.78;5033028;28;45415;-69
2021/08/29 03:21:05;;;;;;;;;3.00;2.00;;;;;26.72;39.21;102175.25;5018762;28;47306;-67
2021/08/29 03:23:31;;;;;;;;;2.75;2.00;;;;;26.73;39.11;102171.56;5028620;28;45293;-67
2021/08/29 03:25:56;;;;;;;;;2.00;2.00;;;;;26.74;38.95;102175.91;5027412;28;45465;-67
2021/08/29 03:28:22;;;;;;;;;2.00;1.25;;;;;26.73;39.09;102168.88;5033231;28;45593;-67
2021/08/29 03:30:47;;;;;;;;;5.75;2.25;;;;;26.74;39.12;102175.91;5033211;28;45396;-67
2021/08/29 03:33:12;;;;;;;;;3.75;2.00;;;;;26.73;39.09;102169.72;5033029;28;45528;-67
2021/08/29 03:35:38;;;;;;;;;3.50;2.50;;;;;26.72;39.17;102164.56;5035285;28;45319;-67
2021/08/29 03:38:04;;;;;;;;;1.50;1.00;;;;;26.71;39.55;102165.56;5033227;28;45271;-67
2021/08/29 03:40:30;;;;;;;;;2.25;2.25;;;;;26.73;38.83;102161.72;5032958;28;47196;-67
2021/08/29 03:42:56;;;;;;;;;2.00;2.00;;;;;26.72;39.10;102153.91;5033126;28;45374;-67
2021/08/29 03:45:22;;;;;;;;;0.25;0.25;;;;;26.73;39.25;102158.19;5033197;28;45394;-67
2021/08/29 03:47:47;;;;;;;;;2.25;2.25;;;;;26.72;39.16;102159.22;5034814;28;45478;-66
2021/08/29 03:50:13;;;;;;;;;3.00;1.25;;;;;26.71;39.07;102157.56;5032654;28;46338;-67
2021/08/29 03:52:39;;;;;;;;;2.75;2.75;;;;;26.70;39.11;102153.25;5032518;28;45414;-67
2021/08/29 03:55:06;;;;;;;;;2.75;1.00;;;;;26.70;39.18;102147.91;5033052;28;45747;-67
2021/08/29 03:57:31;;;;;;;;;2.50;1.50;;;;;26.70;39.05;102153.25;5033092;28;45267;-67
2021/08/29 03:59:57;;;;;;;;;1.50;1.50;;;;;26.70;39.00;102150.59;5034527;28;47072;-67
2021/08/29 04:02:22;;;;;;;;;1.00;1.00;;;;;26.67;38.95;102148.25;5026827;28;45369;-67
2021/08/29 04:04:48;;;;;;;;;4.00;2.75;;;;;26.67;39.33;102149.09;5026677;28;45388;-67
2021/08/29 04:07:16;;;;;;;;;3.00;3.00;;;;;26.67;39.16;102153.59;5032985;28;45442;-66
2021/08/29 04:09:42;;;;;;;;;2.00;2.00;;;;;26.67;38.87;102153.59;5032598;28;46307;-67
2021/08/29 04:12:08;;;;;;;;;3.00;2.00;;;;;26.67;39.01;102154.44;5033294;28;45252;-67
2021/08/29 04:14:34;;;;;;;;;3.25;2.25;;;;;26.67;39.21;102149.09;5033406;28;45470;-67
2021/08/29 04:16:59;;;;;;;;;1.75;1.00;;;;;26.66;39.09;102142.09;5032271;28;45430;-67
2021/08/29 04:19:26;;;;;;;;;1.00;1.00;;;;;26.64;39.10;102141.44;5032535;28;45909;-67
2021/08/29 04:21:53;;;;;;;;;2.75;1.75;;;;;26.66;39.08;102151.94;5032927;28;45487;-67
2021/08/29 04:24:19;;;;;;;;;2.25;1.25;;;;;26.65;39.07;102140.41;5032673;28;45547;-67
2021/08/29 04:26:45;;;;;;;;;2.50;1.00;;;;;26.65;38.87;102144.94;5034651;28;45251;-67
2021/08/29 04:29:11;;;;;;;;;4.00;2.00;;;;;26.63;39.07;102145.13;5033244;28;47464;-67
2021/08/29 04:31:37;;;;;;;;;3.00;1.50;;;;;26.62;39.16;102138.94;5035372;28;45542;-66
2021/08/29 04:34:04;;;;;;;;;2.25;2.25;;;;;26.63;39.14;102143.28;5035921;28;45374;-66
2021/08/29 04:36:31;;;;;;;;;1.50;1.50;;;;;26.64;39.46;102136.13;5036091;28;45393;-67
2021/08/29 04:39:00;;;;;;;;;2.75;1.75;;;;;26.60;38.98;102129.47;5037249;28;46362;-67
2021/08/29 04:41:25;;;;;;;;;4.00;2.00;;;;;26.63;39.15;102135.28;5030579;28;45271;-67
2021/08/29 04:43:51;;;;;;;;;5.25;2.00;;;;;26.64;39.17;102144.13;5031551;28;47800;-67
2021/08/29 04:46:16;;;;;;;;;1.25;1.00;;;;;26.64;39.30;102136.13;5035504;28;45611;-67
2021/08/29 04:48:42;;;;;;;;;2.25;2.00;;;;;26.64;39.03;102130.78;5035636;28;45537;-67
2021/08/29 04:51:07;;;;;;;;;1.50;1.50;;;;;26.66;39.16;102135.91;5035622;28;45593;-67
2021/08/29 04:53:33;;;;;;;;;1.50;1.50;;;;;26.67;39.19;102140.25;5037244;28;45342;-67
2021/08/29 04:55:58;;;;;;;;;1.25;1.25;;;;;26.65;39.24;102140.41;5035450;28;45535;-67
2021/08/29 04:58:23;;;;;;;;;2.00;2.00;;;;;26.67;39.06;102142.94;5035159;28;51686;-67
2021/08/29 05:00:49;;;;;;;;;1.25;1.25;;;;;26.67;39.06;102142.94;5035182;28;45276;-67
2021/08/29 05:03:14;;;;;;;;;1.00;1.00;;;;;26.68;39.07;102148.06;5035799;28;45669;-67
2021/08/29 05:05:39;;;;;;;;;4.00;2.00;;;;;26.66;39.24;102144.75;5037410;28;45303;-67
2021/08/29 05:08:05;;;;;;;;;1.00;1.00;;;;;26.70;39.05;102150.59;5035324;28;45960;-67
2021/08/29 05:10:30;;;;;;;;;2.00;2.00;;;;;26.69;39.13;102141.72;5035185;28;45365;-67
2021/08/29 05:12:56;;;;;;;;;1.00;1.00;;;;;26.69;38.70;102148.91;5035237;28;45387;-67
2021/08/29 05:15:21;;;;;;;;;2.00;2.00;;;;;26.69;39.08;102152.41;5035089;28;45304;-67
2021/08/29 05:17:46;;;;;;;;;3.50;3.50;;;;;26.67;39.06;102146.44;5037137;28;46191;-67
2021/08/29 05:20:12;;;;;;;;;1.25;1.25;;;;;26.70;39.03;102148.72;5029221;28;45447;-67
2021/08/29 05:22:37;;;;;;;;;1.00;1.00;;;;;26.70;39.00;102150.59;5029442;28;45304;-67
2021/08/29 05:25:03;;;;;;;;;4.00;2.00;;;;;26.69;38.94;102146.25;5035064;28;45418;-66
2021/08/29 05:27:29;;;;;;;;;1.00;1.00;;;;;26.69;39.30;102149.75;5035037;28;46133;-67
2021/08/29 05:29:54;;;;;;;;;2.00;2.00;;;;;26.67;38.80;102142.94;5036707;28;45252;-67
2021/08/29 05:32:19;;;;;;;;;3.75;1.00;;;;;26.68;39.01;102156.09;5022863;28;45471;-66
2021/08/29 05:34:45;;;;;;;;;1.25;1.25;;;;;26.68;38.73;102168.59;5035074;28;45365;-67
2021/08/29 05:37:10;;;;;;;;;2.75;2.00;;;;;26.67;39.07;102162.44;5034775;28;45618;-67
2021/08/29 05:39:35;;;;;;;;;2.00;2.00;;;;;26.67;39.35;102161.63;5034583;28;45403;-67
2021/08/29 05:42:01;;;;;;;;;2.25;2.25;;;;;26.66;38.96;102170.63;5036406;28;45575;-67
2021/08/29 05:44:26;;;;;;;;;1.00;1.00;;;;;26.64;38.95;102168.13;5034955;28;45505;-67
2021/08/29 05:46:52;;;;;;;;;1.25;1.25;;;;;26.63;39.10;102164.63;5021511;28;45473;-67
2021/08/29 05:49:17;;;;;;;;;2.00;2.00;;;;;26.66;39.04;102162.59;5034662;28;45374;-67
2021/08/29 05:51:42;;;;;;;;;2.00;2.00;;;;;26.65;39.07;102166.31;5034727;28;45448;-67
2021/08/29 05:54:08;;;;;;;;;2.00;0.25;;;;;26.65;38.79;102172.44;5034061;28;45467;-67
2021/08/29 05:56:33;;;;;;;;;3.25;2.00;;;;;26.63;39.14;102167.31;5036043;28;45423;-67
2021/08/29 05:58:58;;;;;;;;;1.00;1.00;;;;;26.63;39.03;102169.13;5028156;28;45654;-67
2021/08/29 06:01:24;;;;;;;;;2.00;2.00;;;;;26.62;39.08;102167.50;5028619;28;45436;-67
2021/08/29 06:03:49;;;;;;;;;2.00;2.00;;;;;26.63;39.30;102167.31;5034358;28;45569;-67
2021/08/29 06:06:14;;;;;;;;;2.25;1.00;;;;;26.63;39.25;102166.47;5034435;28;47285;-67
2021/08/29 06:08:40;;;;;;;;;2.50;2.00;;;;;26.62;39.20;102164.81;5036279;28;45388;-67
2021/08/29 06:11:07;;;;;;;;;1.75;1.00;;;;;26.61;38.91;102169.34;5034370;28;45543;-67
2021/08/29 06:13:34;;;;;;;;;1.25;1.25;;;;;26.62;39.12;102168.31;5033956;28;45356;-67
2021/08/29 06:15:59;;;;;;;;;2.00;2.00;;;;;26.62;39.21;102165.63;5034018;28;46391;-67
2021/08/29 06:18:24;;;;;;;;;2.25;2.25;;;;;26.62;38.87;102164.81;5034336;28;45396;-67
2021/08/29 06:20:49;;;;;;;;;1.25;1.25;;;;;26.61;39.31;102163.16;5022918;28;45323;-67
2021/08/29 06:23:15;;;;;;;;;2.00;2.00;;;;;26.62;38.66;102164.81;5034178;28;45446;-67
2021/08/29 06:25:40;;;;;;;;;2.25;1.75;;;;;26.59;38.99;102165.19;5033895;28;46117;-67
2021/08/29 06:28:06;;;;;;;;;2.00;2.00;;;;;26.62;39.26;102164.81;5033749;28;45284;-67
2021/08/29 06:30:31;;;;;;;;;1.75;1.75;;;;;26.59;39.29;102163.34;5034151;28;45747;-67
2021/08/29 06:32:56;;;;;;;;;3.75;2.00;;;;;26.64;39.28;102173.47;5035797;28;45423;-67
2021/08/29 06:35:22;;;;;;;;;2.00;2.00;;;;;26.62;39.31;102168.31;5034276;28;45908;-67
2021/08/29 06:37:47;;;;;;;;;1.00;1.00;;;;;26.65;39.28;102172.44;5028036;28;45288;-67
2021/08/29 06:40:13;;;;;;;;;1.00;1.00;;;;;26.66;38.81;102170.63;5028037;28;45377;-67
2021/08/29 06:42:38;;;;;;;;;1.50;1.50;;;;;26.66;39.04;102170.63;5033813;28;45366;-67
2021/08/29 06:45:04;;;;;;;;;2.00;1.00;;;;;26.66;39.00;102160.78;5034789;28;46047;-67
2021/08/29 06:47:29;;;;;;;;;2.00;1.25;;;;;26.66;38.82;102159.94;5021452;28;45504;-67
2021/08/29 06:49:55;;;;;;;;;2.00;1.00;;;;;26.68;39.23;102160.59;5033665;28;45727;-67
2021/08/29 06:52:20;;;;;;;;;1.00;1.00;;;;;26.67;38.71;102167.78;5033176;28;45424;-67
2021/08/29 06:54:46;;;;;;;;;2.75;1.75;;;;;26.68;39.11;102164.09;5033620;28;45437;-67
2021/08/29 06:57:11;;;;;;;;;1.75;1.00;;;;;26.68;39.06;102165.94;5033350;28;45493;-67
2021/08/29 06:59:36;;;;;;;;;2.25;2.00;;;;;26.68;38.94;102169.44;5035688;28;45356;-67
2021/08/29 07:02:02;;;;;;;;;2.00;1.00;;;;;26.68;39.13;102164.09;5033634;28;45411;-67
2021/08/29 07:04:27;;;;;;;;;2.00;1.00;;;;;26.70;39.11;102177.28;5033184;28;47218;-67
2021/08/29 07:06:52;;;;;;;;;1.00;1.00;;;;;26.70;39.03;102174.59;5033472;28;45399;-67
2021/08/29 07:09:18;;;;;;;;;3.00;1.75;;;;;26.69;38.98;102162.25;5033654;28;45306;-67
2021/08/29 07:11:43;;;;;;;;;2.00;2.00;;;;;26.70;38.97;102162.06;5035326;28;45552;-67
2021/08/29 07:14:08;;;;;;;;;2.50;1.25;;;;;26.70;38.76;102170.06;5033205;28;46912;-67
2021/08/29 07:16:33;;;;;;;;;0.75;0.75;;;;;26.72;39.03;102164.56;5005125;28;45465;-67
2021/08/29 07:18:59;;;;;;;;;2.00;2.00;;;;;26.70;39.30;102166.59;5027439;28;45371;-67
2021/08/29 07:21:24;;;;;;;;;1.00;1.00;;;;;26.72;39.10;102159.22;5033748;28;45324;-67
2021/08/29 07:23:50;;;;;;;;;0.75;0.75;;;;;26.71;39.22;102161.06;5035331;28;46344;-67
2021/08/29 07:26:16;;;;;;;;;1.00;1.00;;;;;26.72;39.00;102159.22;5032251;28;45521;-68
2021/08/29 07:28:42;;;;;;;;;1.50;1.50;;;;;26.72;38.85;102164.56;5033243;28;45379;-67
2021/08/29 07:31:08;;;;;;;;;1.00;1.00;;;;;26.72;39.12;102151.22;5033120;28;45316;-67
2021/08/29 07:33:33;;;;;;;;;1.25;1.00;;;;;26.72;39.34;102156.56;5033008;28;47069;-67
2021/08/29 07:35:59;;;;;;;;;0.50;0.50;;;;;26.72;39.09;102152.06;5034623;28;45414;-67
2021/08/29 07:38:24;;;;;;;;;1.00;1.00;;;;;26.72;39.07;102151.22;5033750;28;45316;-67
2021/08/29 07:40:49;;;;;;;;;2.75;2.75;;;;;26.72;38.80;102160.06;5020628;28;45456;-66
2021/08/29 07:43:15;;;;;;;;;1.75;1.00;;;;;26.72;39.10;102152.06;5033125;28;45918;-67
2021/08/29 07:45:40;;;;;;;;;2.00;2.00;;;;;26.72;38.96;102153.91;5033017;28;45412;-67
2021/08/29 07:48:05;;;;;;;;;2.50;1.75;;;;;26.72;39.10;102159.22;5034113;28;45434;-67
2021/08/29 07:50:31;;;;;;;;;1.00;1.00;;;;;26.73;39.11;102158.19;5034196;28;45386;-67
2021/08/29 07:52:56;;;;;;;;;1.00;1.00;;;;;26.71;38.90;102149.56;5032779;28;46090;-67
2021/08/29 07:55:21;;;;;;;;;5.50;2.00;;;;;26.72;39.00;102151.22;5026599;28;45461;-67
2021/08/29 07:57:47;;;;;;;;;1.00;1.00;;;;;26.73;38.83;102160.88;5028903;28;45426;-67
2021/08/29 08:00:13;;;;;;;;;1.00;1.00;;;;;26.74;38.54;102160.72;5031465;28;45614;-67
2021/08/29 08:02:38;;;;;;;;;1.67;1.00;;;;;26.73;39.03;102166.22;5034744;28;46221;-67
2021/08/29 08:05:04;;;;;;;;;3.00;1.00;;;;;26.74;38.96;102157.22;5034903;28;45513;-67
2021/08/29 08:07:29;;;;;;;;;1.00;1.00;;;;;26.74;39.18;102157.22;5036265;28;45407;-67
2021/08/29 08:09:55;;;;;;;;;2.00;2.00;;;;;26.71;38.82;102155.72;5035978;28;45575;-67
2021/08/29 08:12:20;;;;;;;;;2.25;1.00;;;;;26.74;38.95;102159.88;5036167;28;46302;-67
2021/08/29 08:14:45;;;;;;;;;1.00;1.00;;;;;26.74;38.91;102162.53;5038019;28;45443;-67
2021/08/29 08:17:11;;;;;;;;;1.25;1.00;;;;;26.74;38.86;102163.38;5036285;28;45558;-67
2021/08/29 08:19:36;;;;;;;;;1.75;1.75;;;;;26.73;38.91;102160.88;5036089;28;45508;-67
2021/08/29 08:22:02;;;;;;;;;1.75;1.75;;;;;26.76;38.68;102162.34;5036093;28;46092;-67
2021/08/29 08:24:27;;;;;;;;;2.00;2.00;;;;;26.74;39.13;102150.03;5035757;28;45509;-67
2021/08/29 08:26:53;;;;;;;;;1.00;1.00;;;;;26.75;39.21;102164.22;5038010;28;45322;-67
2021/08/29 08:29:18;;;;;;;;;1.25;1.25;;;;;26.75;38.81;102150.88;5023840;28;45678;-67
2021/08/29 08:31:43;;;;;;;;;1.00;1.00;;;;;26.76;38.73;102146.34;5035787;28;47139;-67
2021/08/29 08:34:09;;;;;;;;;2.00;2.00;;;;;26.76;38.82;102165.84;5030087;28;45525;-67
2021/08/29 08:36:34;;;;;;;;;1.50;1.50;;;;;26.76;38.76;102155.19;5033521;28;45519;-67
2021/08/29 08:39:02;;;;;;;;;2.75;1.50;;;;;26.77;39.10;102156.00;5033499;28;45601;-67
2021/08/29 08:41:28;;;;;;;;;1.00;1.00;;;;;26.76;38.76;102146.34;5036494;28;46077;-67
2021/08/29 08:43:54;;;;;;;;;1.00;1.00;;;;;26.77;38.74;102150.69;5035591;28;45509;-67
2021/08/29 08:46:20;;;;;;;;;1.00;1.00;;;;;26.79;39.12;102162.00;5035776;28;45319;-67
2021/08/29 08:48:49;;;;;;;;;1.00;1.00;;;;;26.79;39.14;102154.00;5035689;28;45295;-67
2021/08/29 08:51:21;;;;;;;;;2.00;2.00;;;;;26.79;39.35;102146.81;5018916;28;46151;-67
2021/08/29 08:53:50;;;;;;;;;1.00;1.00;;;;;26.78;39.01;102155.00;5023612;28;45414;-67
2021/08/29 08:56:16;;;;;;;;;2.00;1.75;;;;;26.77;39.02;102154.19;5035523;28;45500;-67
2021/08/29 08:58:42;;;;;;;;;1.00;1.00;;;;;26.80;39.12;102145.81;5035443;28;45513;-67
2021/08/29 09:01:08;;;;;;;;;0.75;0.75;;;;;26.81;38.64;102151.97;5034741;28;46311;-67
2021/08/29 09:03:34;;;;;;;;;2.00;2.00;;;;;26.80;38.85;102159.16;5034925;28;45323;-67
2021/08/29 09:06:02;;;;;;;;;3.00;0.50;;;;;26.79;39.29;102154.81;5037019;28;45212;-67
2021/08/29 09:08:27;;;;;;;;;1.00;1.00;;;;;26.80;38.73;102151.16;5035100;28;45408;-67
2021/08/29 09:10:52;;;;;;;;;1.50;1.50;;;;;26.81;39.02;102151.97;5035102;28;45470;-67
2021/08/29 09:13:18;;;;;;;;;1.00;1.00;;;;;26.81;38.98;102146.63;5029387;28;45291;-67
2021/08/29 09:15:43;;;;;;;;;1.75;1.75;;;;;26.77;39.47;102151.50;5031062;28;45282;-67
2021/08/29 09:18:11;;;;;;;;;2.75;1.75;;;;;26.82;39.08;102153.63;5033809;28;45421;-67
2021/08/29 09:20:37;;;;;;;;;1.75;1.75;;;;;26.81;38.94;102158.13;5034953;28;47161;-67
2021/08/29 09:23:06;;;;;;;;;1.00;1.00;;;;;26.82;39.03;102159.81;5034711;28;45477;-67
2021/08/29 09:25:42;;;;;;;;;3.00;1.00;;;;;26.82;38.79;102161.66;5035055;28;45359;-67
2021/08/29 09:28:14;;;;;;;;;2.75;1.50;;;;;26.82;38.65;102154.47;5034818;28;45534;-67
2021/08/29 09:30:48;;;;;;;;;4.00;2.00;;;;;26.82;38.96;102149.13;5034840;28;45393;-67
2021/08/29 09:33:14;;;;;;;;;1.25;1.25;;;;;26.81;38.92;102152.78;5035064;28;45457;-67
2021/08/29 09:35:40;;;;;;;;;1.75;1.75;;;;;26.81;38.62;102150.13;5036534;28;45355;-67
2021/08/29 09:38:10;;;;;;;;;1.25;0.75;;;;;26.81;38.66;102144.78;5034949;28;45445;-68
2021/08/29 09:40:37;;;;;;;;;2.00;2.00;;;;;26.81;38.85;102146.63;5034629;28;46379;-67
2021/08/29 09:43:05;;;;;;;;;1.25;1.25;;;;;26.79;38.51;102152.16;5034580;28;45390;-67
2021/08/29 09:45:33;;;;;;;;;1.00;1.00;;;;;26.80;38.94;102143.16;5034852;28;45423;-67
2021/08/29 09:47:58;;;;;;;;;0.00;0.00;;;;;26.80;38.76;102143.16;5036368;28;45237;-68
2021/08/29 09:50:25;;;;;;;;;1.75;1.75;;;;;26.81;38.90;102143.94;5028593;28;46130;-67
2021/08/29 09:52:59;;;;;;;;;2.00;2.00;;;;;26.81;39.09;102136.78;5028772;28;45541;-67
2021/08/29 09:55:31;;;;;;;;;1.75;0.25;;;;;26.80;39.08;102142.31;5028686;28;45858;-67
2021/08/29 09:57:57;;;;;;;;;1.00;1.00;;;;;26.79;38.77;102149.47;5034799;28;45422;-67
2021/08/29 10:00:22;;;;;;;;;1.50;1.50;;;;;26.79;38.67;102152.16;5034559;28;46028;-67
2021/08/29 10:03:01;;;;;;;;;2.00;2.00;;;;;26.80;39.15;102143.16;5036216;28;45385;-67
2021/08/29 10:05:27;;;;;;;;;1.25;1.00;;;;;26.77;38.73;102146.16;5028828;28;45481;-67
2021/08/29 10:08:00;;;;;;;;;0.75;0.75;;;;;26.81;38.88;102157.31;5034332;28;45469;-67
2021/08/29 10:10:30;;;;;;;;;1.00;1.00;;;;;26.81;38.72;102152.78;5034116;28;46056;-67
2021/08/29 10:12:57;;;;;;;;;2.00;2.00;;;;;26.82;38.63;102158.97;5034415;28;45500;-67
2021/08/29 10:15:23;;;;;;;;;2.00;2.00;;;;;26.81;38.94;102146.63;5034360;28;45369;-67
2021/08/29 10:17:51;;;;;;;;;1.00;1.00;;;;;26.82;38.84;102149.13;5035645;28;45730;-67
2021/08/29 10:20:24;;;;;;;;;2.00;2.00;;;;;26.83;39.00;102152.59;5033545;28;47274;-67
2021/08/29 10:22:50;;;;;;;;;2.25;2.25;;;;;26.82;38.83;102154.47;5033975;28;45653;-67
2021/08/29 10:25:18;;;;;;;;;2.75;1.00;;;;;26.82;38.67;102154.47;5034053;28;45374;-67
2021/08/29 10:27:51;;;;;;;;;1.00;1.00;;;;;26.83;39.17;102153.44;5033012;28;45546;-67
2021/08/29 10:30:19;;;;;;;;;2.00;1.00;;;;;26.82;39.06;102146.47;5033905;28;47199;-67
2021/08/29 10:32:46;;;;;;;;;1.00;1.00;;;;;26.82;38.83;102154.47;5030516;28;45265;-67
2021/08/29 10:35:14;;;;;;;;;1.75;1.75;;;;;26.82;38.67;102151.78;5027760;28;45378;-67
2021/08/29 10:37:47;;;;;;;;;2.75;1.75;;;;;26.82;39.05;102146.47;5033850;28;45241;-67
2021/08/29 10:40:14;;;;;;;;;1.00;1.00;;;;;26.83;39.04;102160.59;5033650;28;46093;-67
2021/08/29 10:42:42;;;;;;;;;2.00;1.00;;;;;26.83;38.79;102155.28;5033979;28;45362;-67
2021/08/29 10:45:08;;;;;;;;;2.75;2.75;;;;;26.82;38.86;102157.13;5034560;28;45458;-67
2021/08/29 10:47:36;;;;;;;;;1.50;1.50;;;;;26.83;38.85;102149.94;5035389;28;45612;-67
2021/08/29 10:50:05;;;;;;;;;3.00;1.50;;;;;26.83;38.94;102155.28;5033156;28;46271;-67
2021/08/29 10:52:32;;;;;;;;;1.00;1.00;;;;;26.84;38.76;102146.25;5033612;28;45473;-67
2021/08/29 10:55:08;;;;;;;;;1.25;1.25;;;;;26.83;38.92;102149.94;5033661;28;45368;-67
2021/08/29 10:57:41;;;;;;;;;2.25;2.00;;;;;26.84;38.88;102146.25;5018893;28;45613;-67
2021/08/29 11:00:08;;;;;;;;;1.00;1.00;;;;;26.81;39.22;102150.13;5034395;28;45506;-67
2021/08/29 11:02:42;;;;;;;;;1.00;1.00;;;;;26.81;38.85;102147.47;5035139;28;45577;-67
2021/08/29 11:05:10;;;;;;;;;2.75;2.00;;;;;26.83;38.88;102153.44;5033191;28;45383;-67
2021/08/29 11:07:47;;;;;;;;;2.00;1.25;;;;;26.81;38.98;102151.97;5033560;28;45347;-67
2021/08/29 11:10:38;;;;;;;;;1.75;1.75;;;;;26.82;39.15;102156.31;5027445;28;45508;-67
2021/08/29 11:13:28;;;;;;;;;1.00;1.00;;;;;26.81;38.90;102135.94;5027292;28;45450;-67
2021/08/29 11:16:14;;;;;;;;;2.00;1.00;;;;;26.80;39.02;102148.47;5033563;28;45529;-67
2021/08/29 11:19:07;;;;;;;;;1.00;1.00;;;;;26.81;38.91;102142.13;5019260;28;45316;-67
2021/08/29 11:21:36;;;;;;;;;2.00;2.00;;;;;26.80;38.88;102136.97;5018298;28;45367;-67
2021/08/29 11:24:05;;;;;;;;;1.75;1.00;;;;;26.80;38.88;102135.13;5034727;28;45299;-68